Time;durP1;ratioP1;P1;durP2;ratioP2;P2;SDS_P1;SDS_P2;PMS_P1;PMS_P2;Temp;Humidity;BMP_temperature;BMP_pressure;BME280_temperature;BME280_humidity;BME280_pressure;Samples;Min_cycle;Max_cycle;Signal;HPM_P1;HPM_P2
2024/01/07 00:00:10;;;;;;;17.87;16.00;;;8.20;58.20;;;;;;20735;6785;120013;-73
2024/01/07 00:02:45;;;;;;;23.13;20.77;;;8.10;57.90;;;;;;20592;6775;277967;-73
2024/01/07 00:05:21;;;;;;;23.23;20.97;;;8.10;58.20;;;;;;20608;6775;330425;-73
2024/01/07 00:07:56;;;;;;;22.37;20.12;;;8.30;57.80;;;;;;20616;6775;321171;-72
2024/01/07 00:10:32;;;;;;;17.57;15.80;;;8.50;57.50;;;;;;20750;6775;119383;-73
2024/01/07 00:13:08;;;;;;;17.33;14.47;;;8.00;57.70;;;;;;20806;6775;118868;-72
2024/01/07 00:15:44;;;;;;;17.20;14.07;;;8.00;57.80;;;;;;20820;6775;117298;-72
2024/01/07 00:18:23;;;;;;;15.97;13.93;;;7.50;59.20;;;;;;20818;6775;117672;-72
2024/01/07 00:20:56;;;;;;;22.02;19.83;;;7.50;58.70;;;;;;20471;6775;300388;-72
2024/01/07 00:23:32;;;;;;;22.07;19.83;;;7.90;58.40;;;;;;20572;6775;277189;-73
2024/01/07 00:26:09;;;;;;;17.97;15.50;;;8.00;58.40;;;;;;20796;6775;119453;-72
2024/01/07 00:28:43;;;;;;;20.83;18.73;;;7.90;58.20;;;;;;20570;6775;277172;-72
2024/01/07 00:31:19;;;;;;;21.12;19.12;;;8.00;58.50;;;;;;20455;6775;307968;-72
2024/01/07 00:33:55;;;;;;;16.30;14.70;;;8.20;58.20;;;;;;20802;6775;120084;-72
2024/01/07 00:36:30;;;;;;;21.45;19.35;;;8.10;57.90;;;;;;20606;6775;336107;-73
2024/01/07 00:39:06;;;;;;;16.17;14.47;;;8.20;58.30;;;;;;20812;6775;123105;-73
2024/01/07 00:41:42;;;;;;;18.17;13.97;;;7.80;58.40;;;;;;20668;6774;120715;-72
2024/01/07 00:44:18;;;;;;;14.10;12.70;;;7.60;58.80;;;;;;20825;6774;120051;-72
2024/01/07 00:46:54;;;;;;;16.97;14.00;;;7.50;58.70;;;;;;20810;6774;117971;-73
2024/01/07 00:49:30;;;;;;;21.50;19.27;;;7.40;59.20;;;;;;20613;6775;307029;-72
2024/01/07 00:52:05;;;;;;;16.50;14.80;;;7.60;59.50;;;;;;20828;6775;119436;-72
2024/01/07 00:54:41;;;;;;;21.80;19.37;;;7.60;59.10;;;;;;20593;6775;315071;-72
2024/01/07 00:57:16;;;;;;;22.08;19.90;;;7.70;59.40;;;;;;20615;6775;337832;-72
2024/01/07 00:59:52;;;;;;;17.73;15.83;;;8.00;58.80;;;;;;20798;6775;117905;-73
2024/01/07 01:02:28;;;;;;;17.67;13.97;;;8.00;58.60;;;;;;20830;6775;119437;-72
2024/01/07 01:05:03;;;;;;;16.30;14.23;;;7.70;59.50;;;;;;20809;6775;119362;-75
2024/01/07 01:07:39;;;;;;;17.80;13.40;;;7.50;59.20;;;;;;20827;6775;120120;-72
2024/01/07 01:10:16;;;;;;;23.30;19.50;;;7.40;59.60;;;;;;20560;6775;309637;-72
2024/01/07 01:12:53;;;;;;;22.40;20.20;;;7.60;60.00;;;;;;20550;6789;308182;-74
2024/01/07 01:15:26;;;;;;;18.00;15.70;;;7.90;59.20;;;;;;20773;6792;120124;-72
2024/01/07 01:18:02;;;;;;;16.67;13.63;;;7.70;59.10;;;;;;20789;6787;121132;-73
2024/01/07 01:20:38;;;;;;;16.13;13.90;;;7.60;59.00;;;;;;20677;6797;117967;-72
2024/01/07 01:23:13;;;;;;;21.20;19.10;;;7.40;59.30;;;;;;20509;6807;309086;-72
2024/01/07 01:25:49;;;;;;;23.02;20.75;;;7.60;59.80;;;;;;20558;6792;309072;-73
2024/01/07 01:28:25;;;;;;;15.83;14.00;;;7.90;59.60;;;;;;20821;6777;117392;-72
2024/01/07 01:31:01;;;;;;;18.33;15.00;;;7.90;59.10;;;;;;20682;6777;119698;-72
2024/01/07 01:33:36;;;;;;;21.05;19.00;;;7.60;59.30;;;;;;20605;6778;307083;-73
2024/01/07 01:36:11;;;;;;;21.12;19.00;;;7.80;59.90;;;;;;20612;6775;318538;-72
2024/01/07 01:38:48;;;;;;;21.45;19.30;;;8.00;59.30;;;;;;20595;6775;277604;-73
2024/01/07 01:41:23;;;;;;;18.10;15.23;;;8.20;58.30;;;;;;20695;6775;119951;-72
2024/01/07 01:43:59;;;;;;;14.90;13.10;;;8.20;58.30;;;;;;20828;6775;119444;-72
2024/01/07 01:46:35;;;;;;;20.67;18.58;;;7.90;58.80;;;;;;20569;6790;278530;-73
2024/01/07 01:49:13;;;;;;;17.20;14.87;;;8.00;59.10;;;;;;20766;6790;119576;-72
2024/01/07 01:51:47;;;;;;;14.00;12.10;;;7.70;59.30;;;;;;20601;6793;117832;-71
2024/01/07 01:54:22;;;;;;;21.08;18.98;;;7.70;59.20;;;;;;20564;6788;307506;-72
2024/01/07 01:56:58;;;;;;;18.07;14.93;;;7.80;59.20;;;;;;20810;6774;119534;-73
2024/01/07 01:59:34;;;;;;;17.73;14.27;;;7.60;59.30;;;;;;20775;6789;119593;-72
2024/01/07 02:02:10;;;;;;;14.27;12.77;;;7.50;59.20;;;;;;20824;6775;120320;-74
2024/01/07 02:04:45;;;;;;;15.03;13.53;;;7.30;59.50;;;;;;20811;6775;120657;-72
2024/01/07 02:07:22;;;;;;;16.20;12.63;;;7.10;60.00;;;;;;20822;6775;119805;-72
2024/01/07 02:09:57;;;;;;;20.20;18.20;;;7.00;59.90;;;;;;20580;6775;297519;-72
2024/01/07 02:12:33;;;;;;;21.57;19.27;;;7.30;60.40;;;;;;20612;6775;307472;-74
2024/01/07 02:15:08;;;;;;;16.40;14.57;;;7.60;60.00;;;;;;20800;6774;117499;-72
2024/01/07 02:17:44;;;;;;;14.93;12.97;;;7.60;59.50;;;;;;20829;6775;117914;-73
2024/01/07 02:20:20;;;;;;;20.70;18.62;;;7.40;59.80;;;;;;20553;6775;339247;-72
2024/01/07 02:22:57;;;;;;;16.17;14.47;;;7.50;60.10;;;;;;20804;6775;117257;-75
2024/01/07 02:25:37;;;;;;;21.30;19.10;;;7.50;59.80;;;;;;20616;6775;322072;-72
2024/01/07 02:28:12;;;;;;;15.90;13.87;;;7.60;59.90;;;;;;20825;6775;117517;-72
2024/01/07 02:30:48;;;;;;;16.37;13.20;;;7.60;59.50;;;;;;20714;6775;120524;-73
2024/01/07 02:33:24;;;;;;;20.20;18.10;;;7.50;60.10;;;;;;20602;6775;338043;-73
2024/01/07 02:36:00;;;;;;;20.87;18.87;;;7.50;60.10;;;;;;20616;6775;309237;-72
2024/01/07 02:38:35;;;;;;;20.47;18.47;;;7.90;59.50;;;;;;20614;6775;278260;-73
2024/01/07 02:41:11;;;;;;;21.07;19.07;;;8.10;58.90;;;;;;20439;6789;280680;-73
2024/01/07 02:43:47;;;;;;;21.80;19.67;;;8.30;58.40;;;;;;20564;6790;329694;-72
2024/01/07 02:46:22;;;;;;;20.90;18.83;;;8.50;58.00;;;;;;20616;6790;286075;-73
2024/01/07 02:48:58;;;;;;;20.35;18.17;;;8.50;57.40;;;;;;20537;6790;278144;-72
2024/01/07 02:51:33;;;;;;;15.60;13.93;;;8.60;57.10;;;;;;20653;6790;117716;-73
2024/01/07 02:54:09;;;;;;;14.87;12.93;;;8.30;57.20;;;;;;20824;6785;120516;-73
2024/01/07 02:56:45;;;;;;;17.73;16.07;;;8.00;57.90;;;;;;20589;6775;336969;-72
2024/01/07 02:59:20;;;;;;;13.90;12.50;;;8.00;58.40;;;;;;20781;6790;118031;-73
2024/01/07 03:01:56;;;;;;;12.43;11.23;;;7.80;58.20;;;;;;20601;6794;118112;-73
2024/01/07 03:04:31;;;;;;;16.90;15.20;;;7.60;58.60;;;;;;20622;6770;307534;-72
2024/01/07 03:07:07;;;;;;;18.23;16.45;;;7.70;59.20;;;;;;20612;6770;336262;-72
2024/01/07 03:09:43;;;;;;;15.40;13.23;;;7.90;58.70;;;;;;20826;6770;117374;-73
2024/01/07 03:12:19;;;;;;;18.75;16.80;;;7.90;58.70;;;;;;20616;6775;307226;-72
2024/01/07 03:14:54;;;;;;;18.55;16.75;;;8.00;58.80;;;;;;20596;6775;277587;-73
2024/01/07 03:17:30;;;;;;;14.90;12.70;;;8.20;58.10;;;;;;20804;6775;117497;-73
2024/01/07 03:20:06;;;;;;;15.77;12.70;;;8.10;57.90;;;;;;20782;6775;119400;-73
2024/01/07 03:22:42;;;;;;;18.00;16.20;;;7.70;58.30;;;;;;20597;6775;278050;-74
2024/01/07 03:25:17;;;;;;;13.97;12.57;;;7.80;58.70;;;;;;20821;6775;120038;-73
2024/01/07 03:27:53;;;;;;;12.77;11.47;;;7.80;58.70;;;;;;20826;6775;117976;-72
2024/01/07 03:30:28;;;;;;;12.73;11.47;;;7.50;59.00;;;;;;20759;6775;119813;-74
2024/01/07 03:33:04;;;;;;;18.00;16.30;;;7.30;59.40;;;;;;20588;6775;339343;-72
2024/01/07 03:35:40;;;;;;;13.43;12.03;;;7.50;59.30;;;;;;20782;6789;117499;-72
2024/01/07 03:38:16;;;;;;;13.07;11.67;;;7.50;59.30;;;;;;20788;6790;120161;-73
2024/01/07 03:40:55;;;;;;;17.98;16.27;;;7.30;59.40;;;;;;20499;6790;309107;-72
2024/01/07 03:43:28;;;;;;;15.20;13.17;;;7.50;59.80;;;;;;20840;6785;117370;-72
2024/01/07 03:46:04;;;;;;;16.27;12.00;;;7.40;59.30;;;;;;20839;6785;118436;-72
2024/01/07 03:48:39;;;;;;;12.57;11.30;;;7.30;59.60;;;;;;20835;6785;117377;-73
2024/01/07 03:51:15;;;;;;;17.23;15.53;;;7.20;59.80;;;;;;20466;6796;289303;-72
2024/01/07 03:53:51;;;;;;;18.98;17.12;;;7.30;59.90;;;;;;20582;6785;337474;-72
2024/01/07 03:56:26;;;;;;;13.67;12.17;;;7.60;59.20;;;;;;20736;6804;120156;-72
2024/01/07 03:59:02;;;;;;;17.50;15.80;;;7.50;58.80;;;;;;20612;6785;278369;-74
2024/01/07 04:01:38;;;;;;;19.10;17.20;;;7.90;59.20;;;;;;20425;6785;296924;-72
2024/01/07 04:04:14;;;;;;;19.60;17.40;;;7.90;58.60;;;;;;20577;6785;307644;-73
2024/01/07 04:06:49;;;;;;;14.63;13.23;;;8.00;58.00;;;;;;20770;6785;120090;-74
2024/01/07 04:09:25;;;;;;;17.67;15.98;;;7.80;57.80;;;;;;20539;6800;308771;-73
2024/01/07 04:12:01;;;;;;;16.00;13.57;;;7.60;58.20;;;;;;20533;6871;118171;-74
2024/01/07 04:14:37;;;;;;;19.70;17.15;;;7.60;58.20;;;;;;20537;6799;310347;-73
2024/01/07 04:17:13;;;;;;;20.12;18.12;;;7.60;58.70;;;;;;20569;6785;278548;-74
2024/01/07 04:19:48;;;;;;;15.10;13.17;;;7.70;58.40;;;;;;20732;6800;119955;-73
2024/01/07 04:22:24;;;;;;;19.43;17.43;;;7.60;58.90;;;;;;20630;6770;307280;-73
2024/01/07 04:25:00;;;;;;;17.13;13.13;;;7.60;58.90;;;;;;20824;6770;119438;-74
2024/01/07 04:27:36;;;;;;;13.90;12.43;;;7.40;58.80;;;;;;20841;6770;117339;-73
2024/01/07 04:30:11;;;;;;;17.83;16.13;;;7.10;59.20;;;;;;20576;6770;280261;-72
2024/01/07 04:32:47;;;;;;;15.90;13.07;;;7.20;59.70;;;;;;20762;6789;119545;-73
2024/01/07 04:35:23;;;;;;;18.12;16.23;;;7.20;59.50;;;;;;20621;6775;306324;-73
2024/01/07 04:37:58;;;;;;;17.62;15.93;;;7.30;59.50;;;;;;20615;6775;336170;-73
2024/01/07 04:40:34;;;;;;;14.40;12.60;;;7.50;58.90;;;;;;20750;6775;119386;-73
2024/01/07 04:43:10;;;;;;;12.93;11.63;;;7.40;58.60;;;;;;20809;6774;120867;-74
2024/01/07 04:45:45;;;;;;;11.77;10.67;;;7.20;59.20;;;;;;20827;6775;117320;-74
2024/01/07 04:48:20;;;;;;;11.40;10.30;;;7.00;59.70;;;;;;20831;6775;119654;-72
2024/01/07 04:50:56;;;;;;;15.38;14.02;;;6.80;60.00;;;;;;20496;6775;327100;-75
2024/01/07 04:53:32;;;;;;;13.37;11.97;;;6.90;60.00;;;;;;20824;6775;119657;-74
2024/01/07 04:56:08;;;;;;;16.47;14.80;;;7.10;59.60;;;;;;20616;6775;313019;-72
2024/01/07 04:58:44;;;;;;;12.93;11.63;;;7.10;59.60;;;;;;20813;6775;119676;-73
2024/01/07 05:01:19;;;;;;;12.97;10.47;;;7.10;59.30;;;;;;20694;6775;118538;-73
2024/01/07 05:03:55;;;;;;;15.57;14.27;;;6.90;59.40;;;;;;20614;6775;309232;-73
2024/01/07 05:06:30;;;;;;;13.10;11.37;;;7.00;59.60;;;;;;20828;6775;119613;-72
2024/01/07 05:09:07;;;;;;;15.47;14.17;;;7.10;59.20;;;;;;20597;6775;307542;-72
2024/01/07 05:11:42;;;;;;;16.40;14.87;;;7.10;59.20;;;;;;20463;6775;279694;-73
2024/01/07 05:14:18;;;;;;;16.07;14.57;;;7.30;58.60;;;;;;20609;6775;308061;-73
2024/01/07 05:16:54;;;;;;;15.93;14.53;;;7.60;58.10;;;;;;20597;6775;308940;-73
2024/01/07 05:19:29;;;;;;;12.27;10.97;;;7.70;57.60;;;;;;20822;6775;117609;-75
2024/01/07 05:22:05;;;;;;;12.07;10.83;;;7.60;57.50;;;;;;20624;6843;119931;-73
2024/01/07 05:24:40;;;;;;;15.30;13.90;;;7.20;58.00;;;;;;20553;6790;297527;-73
2024/01/07 05:27:16;;;;;;;12.00;10.73;;;7.10;58.30;;;;;;20783;6789;118489;-74
2024/01/07 05:29:54;;;;;;;10.93;10.00;;;7.10;58.20;;;;;;20799;6789;120760;-73
2024/01/07 05:32:28;;;;;;;10.10;9.20;;;6.90;58.70;;;;;;20838;6785;119818;-73
2024/01/07 05:35:04;;;;;;;10.90;9.80;;;6.50;59.50;;;;;;20823;6785;120236;-73
2024/01/07 05:37:40;;;;;;;11.73;9.83;;;6.50;59.50;;;;;;20835;6785;120650;-73
2024/01/07 05:40:15;;;;;;;10.40;9.43;;;6.40;59.70;;;;;;20770;6785;117193;-72
2024/01/07 05:42:51;;;;;;;15.30;13.90;;;6.20;59.70;;;;;;20607;6785;279552;-73
2024/01/07 05:45:26;;;;;;;14.77;13.57;;;6.40;60.00;;;;;;20626;6785;336167;-72
2024/01/07 05:48:02;;;;;;;12.70;11.50;;;6.80;59.60;;;;;;20797;6785;117336;-74
2024/01/07 05:50:38;;;;;;;11.00;10.10;;;6.70;59.00;;;;;;20753;6770;120924;-72
2024/01/07 05:53:13;;;;;;;16.43;14.93;;;6.50;59.20;;;;;;20597;6774;307206;-73
2024/01/07 05:55:49;;;;;;;13.43;12.13;;;6.60;59.80;;;;;;20827;6775;118686;-74
2024/01/07 05:58:24;;;;;;;11.37;10.43;;;6.60;59.60;;;;;;20828;6775;117665;-73
2024/01/07 06:01:00;;;;;;;15.93;14.53;;;6.40;59.90;;;;;;20489;6775;285946;-73
2024/01/07 06:03:36;;;;;;;16.58;15.13;;;6.50;60.10;;;;;;20602;6775;336989;-73
2024/01/07 06:06:12;;;;;;;16.20;14.80;;;7.10;58.40;;;;;;20607;6775;336488;-72
2024/01/07 06:08:48;;;;;;;15.73;14.43;;;7.10;58.80;;;;;;20592;6775;307963;-75
2024/01/07 06:11:23;;;;;;;15.20;11.20;;;7.30;58.30;;;;;;20685;6775;117776;-73
2024/01/07 06:13:59;;;;;;;15.43;14.13;;;7.10;58.10;;;;;;20602;6775;307555;-75
2024/01/07 06:16:34;;;;;;;11.00;10.10;;;7.10;58.40;;;;;;20803;6775;120123;-73
2024/01/07 06:19:10;;;;;;;11.07;10.10;;;6.90;58.50;;;;;;20800;6775;117264;-73
2024/01/07 06:21:49;;;;;;;15.77;14.20;;;6.60;59.00;;;;;;20411;6790;339068;-73
2024/01/07 06:24:22;;;;;;;12.03;10.93;;;6.70;59.90;;;;;;20744;6800;119650;-73
2024/01/07 06:26:59;;;;;;;14.63;13.43;;;6.60;59.40;;;;;;20602;6770;308581;-73
2024/01/07 06:29:34;;;;;;;16.02;14.65;;;6.70;59.50;;;;;;20573;6785;335466;-73
2024/01/07 06:32:13;;;;;;;13.17;11.87;;;6.90;59.30;;;;;;20817;6790;120124;-78
2024/01/07 06:34:46;;;;;;;11.13;9.83;;;6.50;59.40;;;;;;20747;6794;119475;-74
2024/01/07 06:37:21;;;;;;;14.80;13.40;;;6.50;59.40;;;;;;20612;6790;308749;-73
2024/01/07 06:40:00;;;;;;;15.87;14.57;;;6.80;59.60;;;;;;20529;6793;281454;-73
2024/01/07 06:42:36;;;;;;;11.90;10.87;;;6.80;59.60;;;;;;20824;6774;117483;-75
2024/01/07 06:45:12;;;;;;;10.97;10.07;;;6.60;59.10;;;;;;20750;6793;119920;-74
2024/01/07 06:47:48;;;;;;;11.40;10.40;;;6.10;60.20;;;;;;20768;6790;120146;-73
2024/01/07 06:50:23;;;;;;;10.60;9.60;;;6.10;60.10;;;;;;20696;6794;117487;-77
2024/01/07 06:53:00;;;;;;;11.80;10.67;;;5.80;61.10;;;;;;20752;6789;119849;-77
2024/01/07 06:55:36;;;;;;;10.37;9.47;;;5.70;61.00;;;;;;20802;6775;120648;-74
2024/01/07 06:58:11;;;;;;;16.37;14.97;;;5.70;61.40;;;;;;20614;6775;311198;-75
2024/01/07 07:00:47;;;;;;;12.77;11.67;;;5.90;61.60;;;;;;20716;6775;121100;-73
2024/01/07 07:03:22;;;;;;;11.47;10.40;;;5.90;61.20;;;;;;20816;6775;120762;-74
2024/01/07 07:05:58;;;;;;;12.43;11.23;;;5.80;61.20;;;;;;20825;6775;117311;-74
2024/01/07 07:08:34;;;;;;;16.87;15.37;;;5.90;62.10;;;;;;20611;6775;290031;-74
2024/01/07 07:11:10;;;;;;;17.62;16.02;;;5.90;62.10;;;;;;20477;6774;304356;-74
2024/01/07 07:13:45;;;;;;;14.50;13.20;;;6.30;61.50;;;;;;20814;6775;121092;-75
2024/01/07 07:16:21;;;;;;;13.67;11.90;;;6.30;60.80;;;;;;20778;6790;117732;-82
2024/01/07 07:18:57;;;;;;;18.62;17.02;;;6.10;61.10;;;;;;20515;6790;338043;-78
2024/01/07 07:21:32;;;;;;;12.97;11.70;;;6.20;61.70;;;;;;20621;6794;117864;-77
2024/01/07 07:24:08;;;;;;;14.23;12.83;;;6.10;61.70;;;;;;20794;6775;117965;-77
2024/01/07 07:26:44;;;;;;;12.97;11.77;;;6.10;61.70;;;;;;20738;6790;117910;-78
2024/01/07 07:29:20;;;;;;;13.50;12.10;;;5.80;62.30;;;;;;20745;6794;120627;-74
2024/01/07 07:31:56;;;;;;;13.37;11.90;;;5.80;62.30;;;;;;20596;6790;117908;-75
2024/01/07 07:34:32;;;;;;;12.63;11.23;;;5.70;62.60;;;;;;20727;6794;117378;-76
2024/01/07 07:37:07;;;;;;;19.10;17.20;;;5.60;62.80;;;;;;20572;6775;338599;-78
2024/01/07 07:39:43;;;;;;;19.42;17.75;;;5.80;63.10;;;;;;20529;6794;307286;-78
2024/01/07 07:42:18;;;;;;;20.20;18.12;;;6.20;62.20;;;;;;20547;6789;306622;-78
2024/01/07 07:44:54;;;;;;;20.00;18.10;;;6.50;61.30;;;;;;20547;6787;278591;-77
2024/01/07 07:47:30;;;;;;;14.03;12.73;;;6.80;60.70;;;;;;20781;6787;117514;-77
2024/01/07 07:50:05;;;;;;;13.63;12.37;;;6.70;60.40;;;;;;20735;6789;119895;-77
2024/01/07 07:52:43;;;;;;;18.63;16.90;;;6.40;61.10;;;;;;20531;6793;308987;-75
2024/01/07 07:55:17;;;;;;;14.47;13.03;;;6.30;60.90;;;;;;20779;6789;117539;-76
2024/01/07 07:57:53;;;;;;;14.30;12.63;;;6.30;60.90;;;;;;20767;6792;117220;-78
2024/01/07 08:00:29;;;;;;;18.33;16.70;;;6.10;62.10;;;;;;20509;6786;310684;-80
2024/01/07 08:03:05;;;;;;;14.23;12.73;;;6.20;61.70;;;;;;20702;6786;120502;-76
2024/01/07 08:05:41;;;;;;;19.02;17.23;;;6.20;61.70;;;;;;20536;6786;294930;-77
2024/01/07 08:08:19;;;;;;;18.55;16.83;;;6.30;61.60;;;;;;20535;6786;277756;-76
2024/01/07 08:10:52;;;;;;;15.27;13.77;;;6.60;61.00;;;;;;20656;6779;117798;-78
2024/01/07 08:13:27;;;;;;;18.47;16.80;;;6.50;60.50;;;;;;20511;6794;289851;-77
2024/01/07 08:16:06;;;;;;;19.25;17.55;;;6.80;60.10;;;;;;20519;6790;337192;-79
2024/01/07 08:18:41;;;;;;;15.00;13.50;;;6.80;60.10;;;;;;20717;6794;117387;-79
2024/01/07 08:21:20;;;;;;;13.70;12.30;;;6.70;60.00;;;;;;20653;6789;118314;-81
2024/01/07 08:23:52;;;;;;;14.33;12.93;;;6.40;60.70;;;;;;20778;6786;117832;-78
2024/01/07 08:26:29;;;;;;;17.73;16.10;;;6.10;61.30;;;;;;20566;6787;307779;-79
2024/01/07 08:29:05;;;;;;;19.08;17.27;;;6.20;61.50;;;;;;20546;6786;278156;-78
2024/01/07 08:31:42;;;;;;;19.57;17.77;;;6.80;59.80;;;;;;20419;6787;312068;-75
2024/01/07 08:34:17;;;;;;;14.70;13.27;;;6.80;59.80;;;;;;20722;6807;117492;-75
2024/01/07 08:36:56;;;;;;;15.27;12.40;;;6.70;59.70;;;;;;20706;6807;117622;-76
2024/01/07 08:39:29;;;;;;;14.53;12.20;;;6.40;60.30;;;;;;20717;6807;117756;-78
2024/01/07 08:42:05;;;;;;;12.83;11.43;;;5.90;61.50;;;;;;20527;6872;120413;-76
2024/01/07 08:44:40;;;;;;;12.63;11.30;;;5.90;61.50;;;;;;20743;6793;119606;-77
2024/01/07 08:47:17;;;;;;;18.33;16.50;;;5.90;62.40;;;;;;20586;6793;338917;-76
2024/01/07 08:49:53;;;;;;;17.83;16.23;;;6.30;61.30;;;;;;20499;6797;310190;-77
2024/01/07 08:52:28;;;;;;;17.50;15.90;;;6.30;61.30;;;;;;20552;6793;307827;-77
2024/01/07 08:55:06;;;;;;;15.43;14.03;;;6.60;60.10;;;;;;20587;6778;306858;-76
2024/01/07 08:57:40;;;;;;;11.40;10.50;;;6.80;59.10;;;;;;20758;6797;119533;-73
2024/01/07 09:00:16;;;;;;;14.20;13.00;;;6.60;58.80;;;;;;20501;6793;339418;-74
2024/01/07 09:02:51;;;;;;;13.60;12.40;;;6.60;58.50;;;;;;20527;6792;309037;-76
2024/01/07 09:05:27;;;;;;;13.57;12.37;;;6.70;58.10;;;;;;20594;6778;335710;-74
2024/01/07 09:08:06;;;;;;;10.17;9.27;;;6.80;57.30;;;;;;20699;6810;117602;-73
2024/01/07 09:10:38;;;;;;;10.20;9.23;;;6.60;57.50;;;;;;20686;6789;118431;-72
2024/01/07 09:13:14;;;;;;;8.57;7.87;;;6.30;58.20;;;;;;20814;6770;117286;-74
2024/01/07 09:15:49;;;;;;;11.13;10.23;;;6.00;59.00;;;;;;20626;6770;308775;-74
2024/01/07 09:18:25;;;;;;;11.23;10.32;;;6.10;58.80;;;;;;20619;6770;336230;-72
2024/01/07 09:21:01;;;;;;;9.00;8.30;;;6.40;58.10;;;;;;20706;6770;118346;-73
2024/01/07 09:23:36;;;;;;;10.27;9.37;;;6.30;57.90;;;;;;20601;6775;337928;-72
2024/01/07 09:26:12;;;;;;;7.40;6.80;;;6.40;57.60;;;;;;20822;6775;119904;-72
2024/01/07 09:28:48;;;;;;;10.03;9.23;;;6.30;57.30;;;;;;20589;6775;308610;-72
2024/01/07 09:31:23;;;;;;;8.87;8.07;;;6.30;56.60;;;;;;20691;6775;120124;-72
2024/01/07 09:33:59;;;;;;;9.65;8.95;;;6.30;57.00;;;;;;20588;6775;308957;-74
2024/01/07 09:36:36;;;;;;;9.25;8.55;;;6.50;55.50;;;;;;20604;6775;307963;-73
2024/01/07 09:39:11;;;;;;;8.10;7.40;;;6.50;55.50;;;;;;20803;6775;119978;-73
2024/01/07 09:41:47;;;;;;;7.33;6.73;;;6.50;55.50;;;;;;20652;6775;117563;-74
2024/01/07 09:44:23;;;;;;;8.73;8.13;;;6.20;56.00;;;;;;20600;6775;336064;-73
2024/01/07 09:46:58;;;;;;;9.27;8.68;;;6.30;56.00;;;;;;20586;6775;336493;-73
2024/01/07 09:49:35;;;;;;;9.13;8.35;;;6.70;55.00;;;;;;20595;6775;306672;-76
2024/01/07 09:52:13;;;;;;;9.40;8.50;;;6.70;54.30;;;;;;20605;6775;308875;-74
2024/01/07 09:54:46;;;;;;;9.13;8.43;;;7.00;53.30;;;;;;20584;6775;307080;-72
2024/01/07 09:57:22;;;;;;;7.27;6.67;;;7.00;53.30;;;;;;20821;6775;117197;-72
2024/01/07 09:59:58;;;;;;;7.13;6.63;;;6.90;53.50;;;;;;20779;6775;117119;-74
2024/01/07 10:02:33;;;;;;;9.37;8.60;;;6.50;54.20;;;;;;20610;6775;280620;-74
2024/01/07 10:05:10;;;;;;;9.35;8.57;;;6.70;54.50;;;;;;20594;6775;308842;-75
2024/01/07 10:07:45;;;;;;;8.27;7.72;;;6.60;53.80;;;;;;20611;6775;279759;-73
2024/01/07 10:10:21;;;;;;;7.03;6.43;;;6.80;53.10;;;;;;20763;6775;120302;-73
2024/01/07 10:12:57;;;;;;;5.97;5.47;;;6.30;54.00;;;;;;20790;6774;119406;-74
2024/01/07 10:15:33;;;;;;;5.73;5.33;;;6.30;53.90;;;;;;20802;6774;117432;-74
2024/01/07 10:18:09;;;;;;;5.90;5.40;;;6.00;54.50;;;;;;20809;6774;120227;-74
2024/01/07 10:20:44;;;;;;;7.30;6.80;;;5.70;54.90;;;;;;20506;6774;336065;-74
2024/01/07 10:23:20;;;;;;;6.37;5.90;;;5.80;54.70;;;;;;20805;6775;117694;-75
2024/01/07 10:25:57;;;;;;;7.70;7.20;;;5.80;54.60;;;;;;20615;6775;307397;-76
2024/01/07 10:28:31;;;;;;;7.87;7.37;;;5.90;54.30;;;;;;20614;6775;307493;-78
2024/01/07 10:31:06;;;;;;;6.27;5.77;;;6.20;53.80;;;;;;20688;6775;119263;-80
2024/01/07 10:33:42;;;;;;;5.93;5.43;;;6.10;53.70;;;;;;20783;6775;119444;-78
2024/01/07 10:36:18;;;;;;;5.73;5.33;;;5.80;54.10;;;;;;20824;6775;117567;-78
2024/01/07 10:38:53;;;;;;;7.33;6.83;;;5.60;54.60;;;;;;20572;6775;329780;-77
2024/01/07 10:41:30;;;;;;;6.87;6.27;;;5.70;54.10;;;;;;20660;6775;117504;-78
2024/01/07 10:44:05;;;;;;;8.15;7.55;;;5.70;54.20;;;;;;20593;6775;337007;-78
2024/01/07 10:46:40;;;;;;;6.10;5.60;;;5.80;54.10;;;;;;20780;6775;117631;-80
2024/01/07 10:49:16;;;;;;;8.30;7.70;;;5.70;54.00;;;;;;20161;6860;308690;-78
2024/01/07 10:52:11;;;;;;;8.07;7.47;;;5.80;53.80;;;;;;20544;6807;117699;-79
2024/01/07 10:54:48;;;;;;;6.33;5.87;;;5.50;54.50;;;;;;20711;6807;119344;-78
2024/01/07 10:57:26;;;;;;;7.17;6.60;;;5.50;54.50;;;;;;20725;6807;118203;-79
2024/01/07 11:00:06;;;;;;;8.10;7.50;;;5.40;55.20;;;;;;20493;6799;308176;-78
2024/01/07 11:02:38;;;;;;;6.77;6.23;;;5.60;55.20;;;;;;20822;6774;117040;-79
2024/01/07 11:05:20;;;;;;;7.03;6.43;;;5.60;54.80;;;;;;20805;6774;119761;-78
2024/01/07 11:08:07;;;;;;;8.68;7.97;;;5.40;55.00;;;;;;20605;6774;309097;-78
2024/01/07 11:10:43;;;;;;;7.40;6.80;;;5.60;54.60;;;;;;20692;6828;119007;-79
2024/01/07 11:13:35;;;;;;;8.63;7.95;;;5.60;54.60;;;;;;20608;6774;317145;-77
2024/01/07 11:16:11;;;;;;;8.63;8.02;;;5.70;54.10;;;;;;20559;6788;319627;-79
2024/01/07 11:18:49;;;;;;;8.50;7.90;;;5.90;53.50;;;;;;20522;6788;338523;-77
2024/01/07 11:21:24;;;;;;;8.85;8.20;;;6.20;53.00;;;;;;20466;6789;339588;-75
2024/01/07 11:23:57;;;;;;;7.53;6.93;;;6.40;52.50;;;;;;20864;6759;119001;-76
2024/01/07 11:26:33;;;;;;;9.33;8.63;;;6.20;52.40;;;;;;20660;6758;278975;-76
2024/01/07 11:29:09;;;;;;;9.73;9.02;;;6.10;52.40;;;;;;20647;6758;308557;-76
2024/01/07 11:31:47;;;;;;;8.20;7.40;;;6.30;51.90;;;;;;20721;6758;120029;-75
2024/01/07 11:34:46;;;;;;;8.07;7.27;;;6.00;52.00;;;;;;20876;6759;116941;-78
2024/01/07 11:37:21;;;;;;;9.30;8.60;;;5.70;52.60;;;;;;20646;6759;308858;-78
2024/01/07 11:39:56;;;;;;;8.07;7.37;;;5.70;52.60;;;;;;20840;6759;121069;-77
2024/01/07 11:42:32;;;;;;;9.37;8.60;;;5.60;52.50;;;;;;20656;6759;279267;-78
2024/01/07 11:45:10;;;;;;;9.85;9.15;;;5.60;52.50;;;;;;20646;6758;306532;-78
2024/01/07 11:47:43;;;;;;;9.50;8.80;;;5.80;51.80;;;;;;20652;6759;336616;-78
2024/01/07 11:50:19;;;;;;;7.60;6.90;;;6.00;51.40;;;;;;20772;6759;117016;-79
2024/01/07 11:52:55;;;;;;;8.67;8.07;;;5.90;51.70;;;;;;20601;6759;279298;-80
2024/01/07 11:55:32;;;;;;;8.33;7.63;;;5.90;51.80;;;;;;20876;6759;119192;-82
2024/01/07 11:58:08;;;;;;;7.20;6.53;;;5.70;52.00;;;;;;20880;6759;117117;-80
2024/01/07 12:00:45;;;;;;;7.63;6.93;;;5.30;53.10;;;;;;20755;6759;117359;-79
2024/01/07 12:03:20;;;;;;;7.00;6.40;;;5.20;53.00;;;;;;20868;6759;119840;-79
2024/01/07 12:05:56;;;;;;;9.30;8.60;;;5.10;53.40;;;;;;20662;6759;278264;-79
2024/01/07 12:08:32;;;;;;;9.10;8.47;;;5.20;52.90;;;;;;20641;6759;281864;-79
2024/01/07 12:11:08;;;;;;;9.80;9.07;;;5.50;52.00;;;;;;20534;6759;309457;-78
2024/01/07 12:13:43;;;;;;;9.52;8.82;;;5.80;51.20;;;;;;20659;6759;336959;-77
2024/01/07 12:16:18;;;;;;;8.13;7.53;;;6.00;50.60;;;;;;20878;6759;117065;-78
2024/01/07 12:18:55;;;;;;;8.17;7.50;;;5.60;51.70;;;;;;20851;6759;120147;-82
2024/01/07 12:21:30;;;;;;;9.90;9.20;;;5.60;51.70;;;;;;20511;6759;308297;-80
2024/01/07 12:24:06;;;;;;;8.90;8.10;;;5.70;52.30;;;;;;20845;6759;117495;-76
2024/01/07 12:26:43;;;;;;;8.33;7.53;;;5.60;52.10;;;;;;20853;6759;117311;-77
2024/01/07 12:29:21;;;;;;;9.57;8.87;;;5.40;52.30;;;;;;20568;6759;309019;-79
2024/01/07 12:32:02;;;;;;;8.60;7.80;;;5.50;52.00;;;;;;20664;6759;118175;-82
2024/01/07 12:34:36;;;;;;;6.73;6.30;;;5.50;52.10;;;;;;20839;6814;117263;-78
2024/01/07 12:37:12;;;;;;;9.03;8.33;;;5.30;52.60;;;;;;20629;6758;307463;-82
2024/01/07 12:39:49;;;;;;;6.70;6.27;;;5.40;52.10;;;;;;20840;6758;117244;-75
2024/01/07 12:42:23;;;;;;;9.93;9.20;;;5.30;51.90;;;;;;20648;6758;309486;-78
2024/01/07 12:44:56;;;;;;;10.07;9.43;;;5.50;52.40;;;;;;20632;6759;278035;-78
2024/01/07 12:47:35;;;;;;;8.40;7.90;;;6.00;50.70;;;;;;20691;6759;326524;-81
2024/01/07 12:50:09;;;;;;;7.72;7.32;;;6.00;50.70;;;;;;20626;6759;308975;-81
2024/01/07 12:52:48;;;;;;;6.77;6.27;;;6.10;49.70;;;;;;20876;6759;117917;-85
2024/01/07 12:55:23;;;;;;;7.10;6.57;;;5.90;50.00;;;;;;20880;6812;119824;-82
2024/01/07 12:58:00;;;;;;;8.37;7.77;;;5.60;50.80;;;;;;20671;6759;307527;-78
2024/01/07 13:00:35;;;;;;;7.40;6.80;;;5.60;50.50;;;;;;20802;6759;116661;-78
2024/01/07 13:03:13;;;;;;;9.10;8.50;;;5.40;50.80;;;;;;20648;6758;295078;-77
2024/01/07 13:05:43;;;;;;;7.47;6.97;;;5.50;50.80;;;;;;20879;6759;117550;-75
2024/01/07 13:08:19;;;;;;;7.30;6.70;;;5.40;51.00;;;;;;20874;6759;119521;-77
2024/01/07 13:10:55;;;;;;;7.30;6.23;;;5.20;51.40;;;;;;20751;6759;119366;-78
2024/01/07 13:13:30;;;;;;;6.90;6.40;;;5.00;51.90;;;;;;20855;6759;116990;-77
2024/01/07 13:16:06;;;;;;;7.17;6.57;;;4.80;52.20;;;;;;20866;6658;119597;-77